createdAt,value
2019-05-12T00:01:58.758Z,19.48
2019-05-12T00:04:28.074Z,21.02
2019-05-12T00:06:55.549Z,19.90
2019-05-12T00:09:22.832Z,18.92
2019-05-12T00:11:50.088Z,23.75
2019-05-12T00:14:17.807Z,17.27
2019-05-12T00:16:45.556Z,24.32
2019-05-12T00:19:12.896Z,19.32
2019-05-12T00:21:40.206Z,19.87
2019-05-12T00:24:10.299Z,21.48
2019-05-12T00:26:38.278Z,19.37
2019-05-12T00:29:07.672Z,19.85
2019-05-12T00:31:34.965Z,18.17
2019-05-12T00:34:02.321Z,20.60
2019-05-12T00:36:29.661Z,20.97
2019-05-12T00:38:57.994Z,20.65
2019-05-12T00:41:25.597Z,20.57
2019-05-12T00:43:52.925Z,22.02
2019-05-12T00:46:20.206Z,23.95
2019-05-12T00:48:48.214Z,22.52
2019-05-12T00:51:18.006Z,24.82
2019-05-12T00:53:44.913Z,23.67
2019-05-12T00:56:12.201Z,23.05
2019-05-12T00:58:39.463Z,21.07
2019-05-12T01:01:08.134Z,17.10
2019-05-12T01:03:38.065Z,21.00
2019-05-12T01:06:05.071Z,20.05
2019-05-12T01:08:32.368Z,20.92
2019-05-12T01:10:59.855Z,21.73
2019-05-12T01:13:27.962Z,19.57
2019-05-12T01:15:55.644Z,23.60
2019-05-12T01:18:22.961Z,19.23
2019-05-12T01:20:50.279Z,22.77
2019-05-12T01:23:19.250Z,20.35
2019-05-12T01:25:47.785Z,22.80
2019-05-12T01:28:18.256Z,23.98
2019-05-12T01:30:45.334Z,16.55
2019-05-12T01:33:12.689Z,20.15
2019-05-12T01:35:40.279Z,15.83
2019-05-12T01:38:08.104Z,17.32
2019-05-12T01:40:35.754Z,17.95
2019-05-12T01:43:03.139Z,17.82
2019-05-12T01:45:30.469Z,16.70
2019-05-12T01:47:59.216Z,21.17
2019-05-12T01:50:28.345Z,18.40
2019-05-12T01:52:58.394Z,22.45
2019-05-12T01:55:25.257Z,20.52
2019-05-12T01:57:52.584Z,20.60
2019-05-12T02:00:20.026Z,22.98
2019-05-12T02:02:48.116Z,25.75
2019-05-12T02:05:18.166Z,21.35
2019-05-12T02:07:48.166Z,21.87
2019-05-12T02:10:17.970Z,21.87
2019-05-12T02:12:45.361Z,19.65
2019-05-12T02:15:13.626Z,23.10
2019-05-12T02:17:40.955Z,26.68
2019-05-12T02:20:08.723Z,23.47
2019-05-12T02:22:38.600Z,22.73
2019-05-12T02:25:07.939Z,24.80
2019-05-12T02:27:34.765Z,21.57
2019-05-12T02:30:02.158Z,21.50
2019-05-12T02:32:43.375Z,21.62
2019-05-12T02:34:59.134Z,22.30
2019-05-12T02:37:26.469Z,24.92
2019-05-12T02:39:55.579Z,24.02
2019-05-12T02:42:24.350Z,21.17
2019-05-12T02:44:54.963Z,21.68
2019-05-12T02:47:23.842Z,29.05
2019-05-12T02:49:50.466Z,24.80
2019-05-12T02:52:18.432Z,20.25
2019-05-12T02:54:55.383Z,20.57
2019-05-12T02:57:16.482Z,21.20
2019-05-12T02:59:47.210Z,23.80
2019-05-12T03:02:15.134Z,25.65
2019-05-12T03:04:44.283Z,19.15
2019-05-12T03:07:15.009Z,23.50
2019-05-12T03:09:41.170Z,23.12
2019-05-12T03:12:08.656Z,23.15
2019-05-12T03:14:40.488Z,22.65
2019-05-12T03:17:05.193Z,21.02
2019-05-12T03:19:34.553Z,21.10
2019-05-12T03:22:04.780Z,17.85
2019-05-12T03:24:34.002Z,18.02
2019-05-12T03:27:00.130Z,19.85
2019-05-12T03:29:27.399Z,20.90
2019-05-12T03:31:57.082Z,19.82
2019-05-12T03:34:29.049Z,17.77
2019-05-12T03:36:58.620Z,16.12
2019-05-12T03:39:24.801Z,16.75
2019-05-12T03:41:54.513Z,16.93
2019-05-12T03:44:20.669Z,14.53
2019-05-12T03:46:48.001Z,17.42
2019-05-12T03:49:15.738Z,18.85
2019-05-12T03:51:45.715Z,14.63
2019-05-12T03:54:15.282Z,17.02
2019-05-12T03:56:44.281Z,13.72
2019-05-12T03:59:11.074Z,15.43
2019-05-12T04:01:38.389Z,13.30
2019-05-12T04:04:05.833Z,13.40
2019-05-12T04:06:34.582Z,14.20
2019-05-12T04:09:05.090Z,15.05
2019-05-12T04:11:35.437Z,16.62
2019-05-12T04:14:01.767Z,14.90
2019-05-12T04:16:29.829Z,15.75
2019-05-12T04:18:57.165Z,18.25
2019-05-12T04:21:24.693Z,16.00
2019-05-12T04:23:54.880Z,12.75
2019-05-12T04:26:24.868Z,16.05
2019-05-12T04:28:50.565Z,19.07
2019-05-12T04:31:17.860Z,12.58
2019-05-12T04:33:45.409Z,50.23
2019-05-12T04:36:14.917Z,58.23
2019-05-12T04:38:44.912Z,17.20
2019-05-12T04:41:14.396Z,14.40
2019-05-12T04:43:40.538Z,11.97
2019-05-12T04:46:07.867Z,16.37
2019-05-12T04:48:36.075Z,17.17
2019-05-12T04:51:04.997Z,20.52
2019-05-12T04:53:35.268Z,19.07
2019-05-12T04:56:10.758Z,17.92
2019-05-12T04:58:34.841Z,18.12
2019-05-12T05:01:00.166Z,24.10
2019-05-12T05:03:27.471Z,21.07
2019-05-12T05:05:55.529Z,19.92
2019-05-12T05:08:24.400Z,19.57
2019-05-12T05:10:54.637Z,25.92
2019-05-12T05:13:21.209Z,19.48
2019-05-12T05:15:48.625Z,21.82
2019-05-12T05:18:15.974Z,19.90
2019-05-12T05:20:43.931Z,17.70
2019-05-12T05:23:13.897Z,19.95
2019-05-12T05:25:40.697Z,17.20
2019-05-12T05:28:08.040Z,18.45
2019-05-12T05:30:35.393Z,17.17
2019-05-12T05:33:04.454Z,18.60
2019-05-12T05:35:37.213Z,15.25
2019-05-12T05:38:01.810Z,15.45
2019-05-12T05:40:30.417Z,16.73
2019-05-12T05:42:57.895Z,17.02
2019-05-12T05:45:26.532Z,17.20
2019-05-12T05:47:54.527Z,22.22
2019-05-12T05:50:25.126Z,16.90
2019-05-12T05:52:51.118Z,16.27
2019-05-12T05:55:20.362Z,15.32
2019-05-12T05:57:47.816Z,20.75
2019-05-12T06:00:20.315Z,13.90
2019-05-12T06:02:44.669Z,13.32
2019-05-12T06:05:14.272Z,17.23
2019-05-12T06:07:41.488Z,16.35
2019-05-12T06:10:09.824Z,15.03
2019-05-12T06:12:40.422Z,15.80
2019-05-12T06:15:08.851Z,15.70
2019-05-12T06:17:35.964Z,16.10
2019-05-12T06:20:04.370Z,13.15
2019-05-12T06:22:33.816Z,16.67
2019-05-12T06:25:04.512Z,14.47
2019-05-12T06:27:32.791Z,12.40
2019-05-12T06:30:01.018Z,13.40
2019-05-12T06:32:28.865Z,13.80
2019-05-12T06:35:01.398Z,18.02
2019-05-12T06:37:25.501Z,14.33
2019-05-12T06:39:56.507Z,15.38
2019-05-12T06:42:24.061Z,11.75
2019-05-12T06:44:55.062Z,13.90
2019-05-12T06:47:20.489Z,16.07
2019-05-12T06:49:48.843Z,13.20
2019-05-12T06:52:17.065Z,13.13
2019-05-12T06:54:51.297Z,14.38
2019-05-12T06:57:24.148Z,14.07
2019-05-12T06:59:51.000Z,17.75
2019-05-12T07:02:13.870Z,12.28
2019-05-12T07:04:46.173Z,15.18
2019-05-12T07:07:10.606Z,12.45
2019-05-12T07:09:50.112Z,16.60
2019-05-12T07:12:07.443Z,14.90
2019-05-12T07:14:34.848Z,16.80
2019-05-12T07:17:08.510Z,11.88
2019-05-12T07:19:35.869Z,14.28
2019-05-12T07:22:04.949Z,12.37
2019-05-12T07:24:34.141Z,11.15
2019-05-12T07:27:07.415Z,10.03
2019-05-12T07:29:30.833Z,15.48
2019-05-12T07:31:58.301Z,12.90
2019-05-12T07:34:25.762Z,13.85
2019-05-12T07:36:56.156Z,11.63
2019-05-12T07:39:24.583Z,13.90
2019-05-12T07:41:54.935Z,12.53
2019-05-12T07:44:25.361Z,12.93
2019-05-12T07:46:54.055Z,11.90
2019-05-12T07:49:33.793Z,10.72
2019-05-12T07:51:51.037Z,15.70
2019-05-12T07:54:18.357Z,12.13
2019-05-12T07:56:45.670Z,13.38
2019-05-12T07:59:13.620Z,10.78
2019-05-12T08:01:46.605Z,11.20
2019-05-12T08:04:10.351Z,9.80
2019-05-12T08:06:41.852Z,13.40
2019-05-12T08:09:07.319Z,11.15
2019-05-12T08:11:38.659Z,9.60
2019-05-12T08:14:03.955Z,11.50
2019-05-12T08:16:36.235Z,10.55
2019-05-12T08:19:00.624Z,8.83
2019-05-12T08:21:28.025Z,15.43
2019-05-12T08:23:55.543Z,9.70
2019-05-12T08:26:23.870Z,10.18
2019-05-12T08:28:53.499Z,9.58
2019-05-12T08:31:23.410Z,10.95
2019-05-12T08:33:50.195Z,9.08
2019-05-12T08:36:17.553Z,9.88
2019-05-12T08:38:44.879Z,9.58
2019-05-12T08:41:14.646Z,9.95
2019-05-12T08:43:47.091Z,11.20
2019-05-12T08:53:53.915Z,8.93
2019-05-12T08:56:23.391Z,10.30
2019-05-12T08:58:51.402Z,11.80
2019-05-12T09:01:20.472Z,12.20
2019-05-12T09:03:48.173Z,9.03
2019-05-12T09:06:19.755Z,8.28
2019-05-12T09:11:15.248Z,12.18
2019-05-12T09:13:43.421Z,7.22
2019-05-12T09:16:10.947Z,9.28
2019-05-12T09:18:39.355Z,10.43
2019-05-12T09:21:06.801Z,9.78
2019-05-12T09:23:40.978Z,8.53
2019-05-12T09:26:04.124Z,8.30
2019-05-12T09:28:44.392Z,6.55
2019-05-12T09:31:00.839Z,9.13
2019-05-12T09:33:31.945Z,8.20
2019-05-12T09:35:57.384Z,10.50
2019-05-12T09:38:26.378Z,10.15
2019-05-12T09:41:00.911Z,9.53
2019-05-12T09:43:23.997Z,9.18
2019-05-12T09:45:56.095Z,7.25
2019-05-12T09:48:20.984Z,7.62
2019-05-12T09:50:51.547Z,11.68
2019-05-12T09:53:17.766Z,9.55
2019-05-12T09:55:45.121Z,11.65
2019-05-12T09:58:14.165Z,8.23
2019-05-12T10:00:43.451Z,10.32
2019-05-12T10:03:10.925Z,10.32
2019-05-12T10:05:41.095Z,5.20
2019-05-12T10:08:07.562Z,7.70
2019-05-12T10:10:40.025Z,11.30
2019-05-12T10:13:04.986Z,9.53
2019-05-12T10:15:33.139Z,10.08
2019-05-12T10:18:06.633Z,8.90
2019-05-12T10:20:37.346Z,8.53
2019-05-12T10:22:59.169Z,6.47
2019-05-12T10:25:28.677Z,9.68
2019-05-12T10:27:55.784Z,10.25
2019-05-12T10:30:23.532Z,5.95
2019-05-12T10:32:51.069Z,7.80
2019-05-12T10:35:21.536Z,11.97
2019-05-12T10:37:47.628Z,9.93
2019-05-12T10:40:15.362Z,7.03
2019-05-12T10:42:46.131Z,7.60
2019-05-12T10:45:17.003Z,10.10
2019-05-12T10:47:41.340Z,8.73
2019-05-12T10:50:09.156Z,9.55
2019-05-12T10:52:38.919Z,13.05
2019-05-12T10:55:05.863Z,12.85
2019-05-12T10:57:33.463Z,7.03
2019-05-12T11:00:00.890Z,8.08
2019-05-12T11:02:30.449Z,12.07
2019-05-12T11:04:57.595Z,10.60
2019-05-12T11:07:27.980Z,8.00
2019-05-12T11:09:54.467Z,8.98
2019-05-12T11:12:25.217Z,10.68
2019-05-12T11:14:51.422Z,12.05
2019-05-12T11:17:18.777Z,11.03
2019-05-12T11:19:49.875Z,12.45
2019-05-12T11:22:15.321Z,11.05
2019-05-12T11:24:44.433Z,7.90
2019-05-12T11:27:13.452Z,10.88
2019-05-12T11:29:45.951Z,11.75
2019-05-12T11:32:10.205Z,8.78
2019-05-12T11:34:37.822Z,9.85
2019-05-12T11:37:05.248Z,11.30
2019-05-12T11:39:38.782Z,8.50
2019-05-12T11:42:03.738Z,11.85
2019-05-12T11:44:31.062Z,9.65
2019-05-12T11:46:58.523Z,7.40
2019-05-12T11:49:26.651Z,9.10
2019-05-12T11:51:55.114Z,11.70
2019-05-12T11:54:24.249Z,8.58
2019-05-12T11:56:53.567Z,7.30
2019-05-12T11:59:20.993Z,7.42
2019-05-12T12:01:51.485Z,11.18
2019-05-12T12:04:17.833Z,8.75
2019-05-12T12:06:45.152Z,11.35
2019-05-12T12:09:15.233Z,12.55
2019-05-12T12:11:43.347Z,12.75
2019-05-12T12:14:10.830Z,8.95
2019-05-12T12:16:42.019Z,11.08
2019-05-12T12:19:07.285Z,10.38
2019-05-12T12:21:35.171Z,7.03
2019-05-12T12:24:03.955Z,10.43
2019-05-12T12:26:36.602Z,7.22
2019-05-12T12:29:03.373Z,7.47
2019-05-12T12:31:47.491Z,7.90
2019-05-12T12:34:23.307Z,11.08
2019-05-12T12:36:44.268Z,9.55
2019-05-12T12:39:13.160Z,6.03
2019-05-12T12:41:43.649Z,12.07
2019-05-12T12:44:10.228Z,8.10
2019-05-12T12:46:37.576Z,8.60
2019-05-12T12:49:06.400Z,10.38
2019-05-12T12:51:34.292Z,12.40
2019-05-12T12:54:03.294Z,10.90
2019-05-12T12:56:30.741Z,9.73
2019-05-12T12:59:01.920Z,9.45
2019-05-12T13:01:29.174Z,6.92
2019-05-12T13:03:59.408Z,8.50
2019-05-12T13:06:25.829Z,7.92
2019-05-12T13:08:54.129Z,7.45
2019-05-12T13:11:32.852Z,8.38
2019-05-12T13:13:50.988Z,7.83
2019-05-12T13:16:18.928Z,7.30
2019-05-12T13:18:46.263Z,11.48
2019-05-12T13:21:13.920Z,6.47
2019-05-12T13:23:41.434Z,10.38
2019-05-12T13:26:08.769Z,8.93
2019-05-12T13:28:36.253Z,4.37
2019-05-12T13:31:09.177Z,9.18
2019-05-12T13:33:33.838Z,7.12
2019-05-12T13:36:01.418Z,10.55
2019-05-12T13:38:30.529Z,9.35
2019-05-12T13:40:58.005Z,7.35
2019-05-12T13:43:25.381Z,7.22
2019-05-12T13:45:53.419Z,7.08
2019-05-12T13:48:20.981Z,6.72
2019-05-12T13:50:48.311Z,9.35
2019-05-12T13:53:15.697Z,8.15
2019-05-12T13:55:47.523Z,10.28
2019-05-12T13:58:13.617Z,6.70
2019-05-12T14:00:41.454Z,4.85
2019-05-12T14:03:10.328Z,5.28
2019-05-12T14:05:41.138Z,7.30
2019-05-12T14:08:07.241Z,8.78
2019-05-12T14:10:37.400Z,7.92
2019-05-12T14:13:04.061Z,4.97
2019-05-12T14:15:33.921Z,7.35
2019-05-12T14:18:03.271Z,5.05
2019-05-12T14:20:30.035Z,4.92
2019-05-12T14:22:57.443Z,4.92
2019-05-12T14:25:30.431Z,5.90
2019-05-12T14:27:54.075Z,6.60
2019-05-12T14:30:21.509Z,10.00
2019-05-12T14:32:49.269Z,5.92
2019-05-12T14:35:18.048Z,6.42
2019-05-12T14:37:46.313Z,7.05
2019-05-12T14:40:14.665Z,4.53
2019-05-12T14:42:44.022Z,7.10
2019-05-12T14:45:13.520Z,5.45
2019-05-12T14:47:40.493Z,6.90
2019-05-12T14:50:07.835Z,5.60
2019-05-12T14:52:35.142Z,6.67
2019-05-12T14:55:03.409Z,5.72
2019-05-12T14:57:37.455Z,3.95
2019-05-12T15:00:00.141Z,5.50
2019-05-12T15:02:29.445Z,8.00
2019-05-12T15:05:00.148Z,4.60
2019-05-12T15:07:26.281Z,4.62
2019-05-12T15:10:01.947Z,4.03
2019-05-12T15:12:24.306Z,4.12
2019-05-12T15:14:54.194Z,7.05
2019-05-12T15:17:24.286Z,5.90
2019-05-12T15:19:50.625Z,3.98
2019-05-12T15:22:17.980Z,6.35
2019-05-12T15:24:49.427Z,3.80
2019-05-12T15:27:14.708Z,5.15
2019-05-12T15:29:42.098Z,5.83
2019-05-12T15:32:09.582Z,5.40
2019-05-12T15:34:36.992Z,9.63
2019-05-12T15:37:04.331Z,7.40
2019-05-12T15:39:33.589Z,5.42
2019-05-12T15:42:03.326Z,7.50
2019-05-12T15:44:32.046Z,5.83
2019-05-12T15:46:59.453Z,8.20
2019-05-12T15:49:26.745Z,5.53
2019-05-12T15:51:58.326Z,4.28
2019-05-12T15:54:23.333Z,3.50
2019-05-12T15:56:50.707Z,5.00
2019-05-12T15:59:18.016Z,3.62
2019-05-12T16:01:45.345Z,5.70
2019-05-12T16:04:15.053Z,4.83
2019-05-12T16:06:44.762Z,4.12
2019-05-12T16:09:13.107Z,4.22
2019-05-12T16:11:40.717Z,7.05
2019-05-12T16:14:08.096Z,4.03
2019-05-12T16:16:42.451Z,4.90
2019-05-12T16:19:04.991Z,3.70
2019-05-12T16:21:32.317Z,4.92
2019-05-12T16:24:04.969Z,4.17
2019-05-12T16:26:28.829Z,8.28
2019-05-12T16:29:02.589Z,3.65
2019-05-12T16:31:25.354Z,3.40
2019-05-12T16:34:00.863Z,5.62
2019-05-12T16:36:21.932Z,8.80
2019-05-12T16:38:50.076Z,3.70
2019-05-12T16:41:19.856Z,3.30
2019-05-12T16:43:47.473Z,3.62
2019-05-12T16:46:14.802Z,4.37
2019-05-12T16:48:47.838Z,4.47
2019-05-12T16:51:13.714Z,5.25
2019-05-12T16:53:43.522Z,4.72
2019-05-12T16:56:10.432Z,3.15
2019-05-12T16:58:37.898Z,4.87
2019-05-12T17:01:05.275Z,3.50
2019-05-12T17:03:34.202Z,3.35
2019-05-12T17:06:03.570Z,4.55
2019-05-12T17:08:31.055Z,5.10
2019-05-12T17:11:15.138Z,4.33
2019-05-12T17:13:27.717Z,4.60
2019-05-12T17:15:59.877Z,3.10
2019-05-12T17:18:24.894Z,3.35
2019-05-12T17:20:54.545Z,4.35
2019-05-12T17:23:21.588Z,5.60
2019-05-12T17:25:48.976Z,2.77
2019-05-12T17:28:16.299Z,2.85
2019-05-12T17:30:44.468Z,4.05
2019-05-12T17:33:13.427Z,5.90
2019-05-12T17:35:41.100Z,2.52
2019-05-12T17:38:13.924Z,2.98
2019-05-12T17:40:38.030Z,4.30
2019-05-12T17:43:11.336Z,4.00
2019-05-12T17:45:34.696Z,5.53
2019-05-12T17:48:03.632Z,6.33
2019-05-12T17:50:31.356Z,3.45
2019-05-12T17:53:00.421Z,2.33
2019-05-12T17:55:27.953Z,2.33
2019-05-12T17:57:56.140Z,3.22
2019-05-12T18:00:24.737Z,2.25
2019-05-12T18:02:54.886Z,3.50
2019-05-12T18:05:23.830Z,2.33
2019-05-12T18:07:52.460Z,3.33
2019-05-12T18:10:19.977Z,2.42
2019-05-12T18:12:47.333Z,4.45
2019-05-12T18:15:15.467Z,2.08
2019-05-12T18:17:45.340Z,2.92
2019-05-12T18:20:14.422Z,3.37
2019-05-12T18:22:44.956Z,2.62
2019-05-12T18:25:11.069Z,2.40
2019-05-12T18:27:47.973Z,3.85
2019-05-12T18:30:08.038Z,2.65
2019-05-12T18:32:35.637Z,3.33
2019-05-12T18:35:04.241Z,4.15
2019-05-12T18:37:31.807Z,3.27
2019-05-12T18:39:59.177Z,5.80
2019-05-12T18:42:26.628Z,3.75
2019-05-12T18:44:54.636Z,1.92
2019-05-12T18:47:23.381Z,2.98
2019-05-12T18:49:53.693Z,2.98
2019-05-12T18:52:20.650Z,1.77
2019-05-12T18:54:52.177Z,3.22
2019-05-12T18:57:17.205Z,2.47
2019-05-12T18:59:48.385Z,3.05
2019-05-12T19:02:22.778Z,2.92
2019-05-12T19:04:44.309Z,2.40
2019-05-12T19:07:11.924Z,2.77
2019-05-12T19:09:39.266Z,4.12
2019-05-12T19:12:15.670Z,4.22
2019-05-12T19:17:06.407Z,4.05
2019-05-12T19:19:33.713Z,1.65
2019-05-12T19:22:06.737Z,2.45
2019-05-12T19:24:30.286Z,5.58
2019-05-12T19:26:57.655Z,2.42
2019-05-12T19:29:29.752Z,2.62
2019-05-12T19:31:57.795Z,2.95
2019-05-12T19:34:26.288Z,2.20
2019-05-12T19:36:52.833Z,2.40
2019-05-12T19:39:20.134Z,2.15
2019-05-12T19:41:47.486Z,2.80
2019-05-12T19:44:20.026Z,2.00
2019-05-12T19:46:49.236Z,3.72
2019-05-12T19:49:14.512Z,3.00
2019-05-12T19:51:43.789Z,2.85
2019-05-12T19:54:11.181Z,1.42
2019-05-12T19:56:39.597Z,2.87
2019-05-12T19:59:07.191Z,2.17
2019-05-12T20:01:34.652Z,2.35
2019-05-12T20:04:03.607Z,2.27
2019-05-12T20:06:33.437Z,3.67
2019-05-12T20:09:06.582Z,4.28
2019-05-12T20:11:31.511Z,3.52
2019-05-12T20:13:58.994Z,2.47
2019-05-12T20:16:30.333Z,2.33
2019-05-12T20:18:57.888Z,6.92
2019-05-12T20:21:25.937Z,3.02
2019-05-12T20:23:54.489Z,2.55
2019-05-12T20:26:23.726Z,3.37
2019-05-12T20:28:53.424Z,6.50
2019-05-12T20:31:23.678Z,3.52
2019-05-12T20:33:49.786Z,4.75
2019-05-12T20:36:20.666Z,3.85
2019-05-12T20:38:46.352Z,3.42
2019-05-12T20:41:21.844Z,2.47
2019-05-12T20:43:44.348Z,2.47
2019-05-12T20:46:15.434Z,3.55
2019-05-12T20:48:41.177Z,2.65
2019-05-12T20:51:13.719Z,3.08
2019-05-12T20:53:37.751Z,2.15
2019-05-12T20:56:05.077Z,3.15
2019-05-12T20:58:35.195Z,4.53
2019-05-12T21:01:02.862Z,3.55
2019-05-12T21:03:30.873Z,2.55
2019-05-12T21:06:01.558Z,5.53
2019-05-12T21:08:27.441Z,4.45
2019-05-12T21:10:54.798Z,5.95
2019-05-12T21:13:27.169Z,6.17
2019-05-12T21:15:53.758Z,6.92
2019-05-12T21:18:20.653Z,6.03
2019-05-12T21:20:52.427Z,6.35
2019-05-12T21:23:17.201Z,3.85
2019-05-12T21:25:52.082Z,7.00
2019-05-12T21:28:14.898Z,5.53
2019-05-12T21:30:47.951Z,7.97
2019-05-12T21:33:11.626Z,11.33
2019-05-12T21:35:40.677Z,5.85
2019-05-12T21:38:08.052Z,9.05
2019-05-12T21:40:35.362Z,5.03
2019-05-12T21:43:04.171Z,5.65
2019-05-12T21:45:33.724Z,5.40
2019-05-12T21:48:01.021Z,3.92
2019-05-12T21:50:32.490Z,5.55
2019-05-12T21:52:59.885Z,5.15
2019-05-12T21:55:26.854Z,6.72
2019-05-12T21:57:54.227Z,4.33
2019-05-12T22:00:28.246Z,4.40
2019-05-12T22:02:56.491Z,2.80
2019-05-12T22:05:47.230Z,6.15
2019-05-12T22:07:53.297Z,5.30
2019-05-12T22:10:25.610Z,4.12
2019-05-12T22:12:49.854Z,4.75
2019-05-12T22:15:24.854Z,7.30
2019-05-12T22:18:04.248Z,9.40
2019-05-12T22:20:33.039Z,7.42
2019-05-12T22:23:07.003Z,4.92
2019-05-12T22:25:30.397Z,7.60
2019-05-12T22:27:59.153Z,3.55
2019-05-12T22:30:27.969Z,4.22
2019-05-12T22:32:59.389Z,2.98
2019-05-12T22:35:24.583Z,5.65
2019-05-12T22:37:53.555Z,5.42
2019-05-12T22:40:21.027Z,3.60
2019-05-12T22:42:50.556Z,5.42
2019-05-12T22:45:17.572Z,4.22
2019-05-12T22:47:49.245Z,6.83
2019-05-12T22:50:14.213Z,10.25
2019-05-12T22:52:45.204Z,6.35
2019-05-12T22:55:14.025Z,5.20
2019-05-12T22:57:42.962Z,3.95
2019-05-12T23:00:13.465Z,7.03
2019-05-12T23:02:40.020Z,5.83
2019-05-12T23:05:10.374Z,4.75
2019-05-12T23:07:36.710Z,2.75
2019-05-12T23:10:06.943Z,4.28
2019-05-12T23:12:34.343Z,3.37
2019-05-12T23:15:06.815Z,4.58
2019-05-12T23:17:33.734Z,4.78
2019-05-12T23:20:00.710Z,6.30
2019-05-12T23:22:29.398Z,6.20
2019-05-12T23:24:57.258Z,6.17
2019-05-12T23:27:29.773Z,3.92
2019-05-12T23:29:53.776Z,5.40
2019-05-12T23:32:21.130Z,5.80
2019-05-12T23:34:56.643Z,8.28
2019-05-12T23:37:18.293Z,6.28
2019-05-12T23:39:45.704Z,5.97
2019-05-12T23:42:13.585Z,6.40
2019-05-12T23:44:41.160Z,5.50
2019-05-12T23:47:08.510Z,3.83
2019-05-12T23:49:35.867Z,6.35
2019-05-12T23:52:03.961Z,4.90
2019-05-12T23:54:31.481Z,3.65
2019-05-12T23:56:58.822Z,4.20
2019-05-12T23:59:26.163Z,4.35
